Time;durP1;ratioP1;P1;durP2;ratioP2;P2;SDS_P1;SDS_P2;PMS_P1;PMS_P2;Temp;Humidity;BMP_temperature;BMP_pressure;BME280_temperature;BME280_humidity;BME280_pressure;Samples;Min_cycle;Max_cycle;Signal;HPM_P1;HPM_P2
2022/09/19 00:01:24;;;;;;;5.70;3.40;;;;;;;12.13;100.00;100063.31;5071529;28;20483;-72
2022/09/19 00:03:56;;;;;;;5.80;3.40;;;;;;;12.32;100.00;100098.41;5069774;28;20498;-70
2022/09/19 00:06:23;;;;;;;4.53;3.30;;;;;;;12.57;100.00;100104.34;5070836;28;20037;-69
2022/09/19 00:08:48;;;;;;;4.72;3.80;;;;;;;12.31;100.00;100120.50;5071164;28;20040;-69
2022/09/19 00:11:17;;;;;;;3.38;3.08;;;;;;;12.11;100.00;100105.00;5070284;28;20025;-70
2022/09/19 00:13:47;;;;;;;3.72;3.33;;;;;;;12.11;100.00;100102.47;5071018;28;20032;-71
2022/09/19 00:16:18;;;;;;;5.63;3.80;;;;;;;12.39;100.00;100116.00;5071016;28;20459;-68
2022/09/19 00:18:44;;;;;;;5.40;3.57;;;;;;;12.38;100.00;100088.00;5069700;28;20087;-69
2022/09/19 00:21:09;;;;;;;5.00;3.83;;;;;;;11.85;100.00;100084.63;5071283;28;20032;-69
2022/09/19 00:26:20;;;;;;;4.07;3.67;;;;;;;11.89;100.00;100088.75;5071117;28;20034;-70
2022/09/19 00:28:46;;;;;;;4.93;3.40;;;;;;;11.99;100.00;100108.78;5071142;28;20032;-68
2022/09/19 00:31:20;;;;;;;5.53;3.30;;;;;;;11.95;100.00;100079.19;5069844;28;20484;-69
2022/09/19 00:33:47;;;;;;;4.72;3.65;;;;;;;12.05;100.00;100100.13;5071136;28;20032;-68
2022/09/19 00:36:15;;;;;;;4.40;3.55;;;;;;;11.72;100.00;100091.00;5070582;28;20025;-69
2022/09/19 00:38:41;;;;;;;4.90;3.55;;;;;;;11.63;100.00;100066.59;5070762;28;20040;-70
2022/09/19 00:41:08;;;;;;;4.20;3.50;;;;;;;12.12;100.00;100101.59;5070848;28;20028;-70
2022/09/19 00:43:51;;;;;;;4.00;3.50;;;;;;;12.06;100.00;100102.59;5070400;28;20035;-70
2022/09/19 00:46:19;;;;;;;4.30;3.90;;;;;;;11.51;100.00;100041.50;5074047;28;20403;-69
2022/09/19 00:48:47;;;;;;;4.10;3.70;;;;;;;11.98;100.00;100091.00;5089449;28;20035;-70
2022/09/19 00:51:22;;;;;;;6.13;3.90;;;;;;;11.72;100.00;100091.00;5090614;28;20028;-69
2022/09/19 00:53:48;;;;;;;5.28;4.05;;;;;;;12.32;100.00;100106.06;5091040;28;20028;-70
2022/09/19 00:56:18;;;;;;;5.05;4.13;;;;;;;11.95;100.00;100056.28;5090783;28;20031;-70
2022/09/19 00:58:45;;;;;;;4.32;3.70;;;;;;;11.86;100.00;100104.97;5090772;28;20028;-70
2022/09/19 01:01:13;;;;;;;4.55;3.20;;;;;;;12.17;100.00;100102.28;5090683;28;20089;-69
2022/09/19 01:03:39;;;;;;;4.68;3.80;;;;;;;12.13;100.00;100076.06;5090557;28;20032;-69
2022/09/19 01:06:23;;;;;;;4.40;4.00;;;;;;;11.84;100.00;100111.84;5090618;28;20031;-69
2022/09/19 01:09:06;;;;;;;7.15;4.00;;;;;;;11.67;100.00;100103.84;5091049;28;20043;-69
2022/09/19 01:11:47;;;;;;;5.07;3.85;;;;;;;11.44;100.00;100106.22;5089560;28;20074;-74
2022/09/19 01:14:14;;;;;;;5.95;4.35;;;;;;;12.01;100.00;100107.03;5090753;28;20093;-69
2022/09/19 01:16:47;;;;;;;5.68;4.00;;;;;;;11.84;100.00;100098.25;5090507;28;20032;-69
2022/09/19 01:19:35;;;;;;;4.20;3.63;;;;;;;11.50;100.00;100095.88;5093569;28;20050;-69
2022/09/19 01:22:31;;;;;;;5.00;3.90;;;;;;;11.37;100.00;100094.53;5093682;28;20126;-69
2022/09/19 01:25:08;;;;;;;7.45;4.28;;;;;;;11.25;100.00;100100.84;5094580;28;20520;-69
2022/09/19 01:28:06;;;;;;;5.78;4.07;;;;;;;10.98;100.00;100035.47;5094917;28;20028;-68
2022/09/19 01:30:33;;;;;;;5.72;4.05;;;;;;;11.51;100.00;100089.88;5094793;28;20036;-70
2022/09/19 01:33:09;;;;;;;7.13;4.50;;;;;;;10.76;100.00;100036.97;5094655;28;20078;-69
2022/09/19 01:35:39;;;;;;;5.00;4.00;;;;;;;10.86;100.00;100062.97;5094105;28;20089;-73
2022/09/19 01:38:10;;;;;;;5.25;4.32;;;;;;;11.36;100.00;100097.97;5094182;28;20055;-70
2022/09/19 01:40:37;;;;;;;4.95;4.10;;;;;;;11.05;100.00;100061.59;5092964;28;20520;-69
2022/09/19 01:43:05;;;;;;;6.13;4.43;;;;;;;11.12;100.00;100094.44;5092946;28;20101;-69
2022/09/19 01:45:38;;;;;;;5.82;4.30;;;;;;;10.76;100.00;100048.84;5094331;28;20024;-69
2022/09/19 01:48:09;;;;;;;4.88;4.13;;;;;;;11.27;100.00;100093.16;5094076;28;20177;-68
2022/09/19 01:51:04;;;;;;;4.75;4.10;;;;;;;11.34;100.00;100100.59;5094031;28;20035;-71
2022/09/19 01:53:46;;;;;;;5.45;4.05;;;;;;;11.50;100.00;100095.88;5071476;28;20101;-68
2022/09/19 01:56:39;;;;;;;4.28;3.88;;;;;;;11.24;100.00;100101.72;5093896;28;20039;-69
2022/09/19 01:59:23;;;;;;;4.63;4.13;;;;;;;10.72;100.00;100052.34;5066564;28;20048;-69
2022/09/19 02:01:58;;;;;;;5.25;4.30;;;;;;;10.40;100.00;100025.25;5093876;28;20637;-70
2022/09/19 02:04:44;;;;;;;4.60;4.10;;;;;;;10.26;100.00;100020.53;5094009;28;20555;-69
2022/09/19 02:07:09;;;;;;;5.88;4.10;;;;;;;10.98;100.00;100106.72;5092543;28;20461;-69
2022/09/19 02:10:00;;;;;;;6.30;4.07;;;;;;;11.02;100.00;100107.44;5092745;28;20032;-69
2022/09/19 02:12:30;;;;;;;5.13;4.10;;;;;;;10.65;100.00;100069.50;5093760;28;20028;-69
2022/09/19 02:15:00;;;;;;;4.30;3.90;;;;;;;11.27;100.00;100090.59;5092262;28;20035;-69
2022/09/19 02:17:44;;;;;;;5.18;3.95;;;;;;;10.77;100.00;100065.78;5073632;28;20035;-69
2022/09/19 02:20:16;;;;;;;6.63;4.38;;;;;;;10.96;100.00;100107.63;5073155;28;20565;-71
2022/09/19 02:22:49;;;;;;;5.80;3.90;;;;;;;10.86;100.00;100070.59;5073417;28;20040;-68
2022/09/19 02:25:20;;;;;;;4.22;3.83;;;;;;;10.73;100.00;100076.91;5073166;28;20033;-68
2022/09/19 02:27:54;;;;;;;6.80;4.22;;;;;;;11.08;100.00;100087.78;5073661;28;20059;-69
2022/09/19 02:30:20;;;;;;;5.93;4.03;;;;;;;11.00;100.00;100109.19;5071483;28;20086;-71
2022/09/19 02:32:47;;;;;;;4.90;4.40;;;;;;;10.70;100.00;100082.06;5073216;28;20028;-70
2022/09/19 02:35:15;;;;;;;4.95;4.10;;;;;;;11.17;100.00;100109.59;5071648;28;20028;-70
2022/09/19 02:37:54;;;;;;;5.13;4.13;;;;;;;10.97;100.00;100116.94;5073165;28;20032;-70
2022/09/19 02:40:31;;;;;;;8.48;4.50;;;;;;;10.54;100.00;100081.63;5071816;28;20021;-71
2022/09/19 02:43:36;;;;;;;5.88;3.85;;;;;;;10.77;100.00;100114.09;5072713;28;20068;-70
2022/09/19 02:46:26;;;;;;;5.68;4.40;;;;;;;10.69;100.00;100073.63;5039463;28;20161;-71
2022/09/19 02:49:08;;;;;;;5.05;4.43;;;;;;;10.47;100.00;100075.06;5072976;28;20119;-69
2022/09/19 02:51:57;;;;;;;5.25;4.30;;;;;;;10.91;100.00;100117.94;5071501;28;20032;-70
2022/09/19 02:54:31;;;;;;;4.90;4.40;;;;;;;10.91;100.00;100114.56;5071316;28;20041;-70
2022/09/19 02:57:01;;;;;;;6.72;4.25;;;;;;;10.80;100.00;100126.69;5072790;28;20036;-69
2022/09/19 02:59:33;;;;;;;8.70;4.45;;;;;;;10.81;100.00;100130.94;5072921;28;20098;-69
2022/09/19 03:02:25;;;;;;;4.85;4.18;;;;;;;10.71;100.00;100137.13;5072714;28;20123;-69
2022/09/19 03:04:53;;;;;;;;;;;;;;;10.83;100.00;100132.56;5071512;28;20044;-69
2022/09/19 03:07:42;;;;;;;6.70;4.50;;;;;;;10.43;100.00;100081.94;5072515;28;19919;-68
2022/09/19 03:10:12;;;;;;;6.65;4.70;;;;;;;10.47;100.00;100113.16;5072460;28;20043;-69
2022/09/19 03:12:51;;;;;;;7.60;4.55;;;;;;;10.92;100.00;100128.91;5072656;28;20059;-69
2022/09/19 03:15:24;;;;;;;5.65;4.13;;;;;;;10.95;100.00;100101.69;5072616;28;20102;-71
2022/09/19 03:17:53;;;;;;;7.40;4.80;;;;;;;10.25;100.00;100059.53;5070813;28;20462;-69
2022/09/19 03:20:23;;;;;;;6.10;4.65;;;;;;;10.60;100.00;100126.41;5072197;28;20041;-69
2022/09/19 03:22:49;;;;;;;5.18;4.68;;;;;;;10.40;100.00;100137.91;5070712;28;20032;-70
2022/09/19 03:25:15;;;;;;;5.13;4.10;;;;;;;10.41;100.00;100087.91;5070868;28;20116;-71
2022/09/19 03:27:41;;;;;;;4.97;4.40;;;;;;;10.35;100.00;100144.81;5072218;28;20123;-70
2022/09/19 03:30:09;;;;;;;6.00;4.25;;;;;;;10.27;100.00;100111.13;5071992;28;20037;-70
2022/09/19 03:32:35;;;;;;;6.47;4.38;;;;;;;10.36;100.00;100122.75;5072239;28;20028;-70
2022/09/19 03:35:02;;;;;;;5.78;4.20;;;;;;;10.64;100.00;100145.78;5086159;28;20386;-67
2022/09/19 03:37:28;;;;;;;6.00;4.22;;;;;;;12.36;100.00;100115.25;5092094;28;20032;-68
2022/09/19 03:39:54;;;;;;;6.03;4.13;;;;;;;11.48;100.00;100120.53;5092244;28;20410;-70
2022/09/19 03:42:19;;;;;;;7.35;4.43;;;;;;;10.74;100.00;100150.59;5091211;28;20028;-72
2022/09/19 03:44:47;;;;;;;4.45;3.80;;;;;;;11.12;100.00;100140.22;5092003;28;20028;-70
2022/09/19 03:47:12;;;;;;;4.90;4.40;;;;;;;10.17;100.00;100098.69;5090399;28;20028;-70
2022/09/19 03:49:38;;;;;;;6.10;4.53;;;;;;;10.24;100.00;100105.31;5090573;28;20525;-69
2022/09/19 03:52:03;;;;;;;7.20;4.45;;;;;;;10.34;100.00;100142.28;5092252;28;20044;-71
2022/09/19 03:54:29;;;;;;;5.25;4.40;;;;;;;10.89;100.00;100117.16;5091829;28;20024;-69
2022/09/19 03:56:55;;;;;;;7.85;5.30;;;;;;;10.63;100.00;100118.69;5091964;28;20032;-72
2022/09/19 03:59:21;;;;;;;8.55;5.00;;;;;;;10.48;100.00;100106.38;5091805;28;20081;-71
2022/09/19 04:01:46;;;;;;;8.85;5.47;;;;;;;10.70;100.00;100146.47;5090609;28;20115;-71
2022/09/19 04:04:12;;;;;;;8.18;4.95;;;;;;;11.98;100.00;100107.13;5091808;28;20426;-69
2022/09/19 04:06:40;;;;;;;10.50;7.35;;;;;;;10.40;100.00;100114.19;5091703;28;20422;-71
2022/09/19 04:09:05;;;;;;;10.75;6.78;;;;;;;10.30;100.00;100130.56;5090008;28;20024;-70
2022/09/19 04:11:31;;;;;;;9.38;7.00;;;;;;;10.06;100.00;100095.56;5091598;28;20024;-72
2022/09/19 04:13:56;;;;;;;11.77;6.78;;;;;;;10.02;100.00;100099.84;5090603;28;20115;-71
2022/09/19 04:16:24;;;;;;;8.60;5.97;;;;;;;10.43;100.00;100144.63;5090430;28;20063;-69
2022/09/19 04:18:50;;;;;;;13.75;6.32;;;;;;;10.32;100.00;100124.53;5091019;28;20135;-71
2022/09/19 04:21:16;;;;;;;8.98;6.18;;;;;;;10.54;100.00;100145.19;5089980;28;20060;-70
2022/09/19 04:23:43;;;;;;;8.27;6.07;;;;;;;10.80;100.00;100114.00;5091608;28;20118;-71
2022/09/19 04:26:11;;;;;;;11.60;7.47;;;;;;;10.73;100.00;100126.06;5091249;28;20417;-72
2022/09/19 04:28:41;;;;;;;14.07;7.60;;;;;;;11.02;100.00;100159.16;5090836;28;20043;-69
2022/09/19 04:31:09;;;;;;;18.77;8.13;;;;;;;10.82;100.00;100153.78;5089601;28;20028;-70
2022/09/19 04:33:36;;;;;;;14.18;7.10;;;;;;;11.10;100.00;100148.78;5076660;28;20117;-71
2022/09/19 04:36:05;;;;;;;9.13;6.00;;;;;;;11.64;100.00;100148.94;5079752;28;20052;-72
2022/09/19 04:38:32;;;;;;;11.45;6.50;;;;;;;11.15;100.00;100134.25;5080174;28;20028;-71
2022/09/19 04:40:58;;;;;;;10.63;6.05;;;;;;;11.19;100.00;100161.28;5070719;28;20120;-70
2022/09/19 04:43:26;;;;;;;10.45;5.65;;;;;;;12.43;100.00;100166.00;5070695;28;20167;-70
2022/09/19 04:45:54;;;;;;;10.93;5.32;;;;;;;12.31;100.00;100171.50;5088434;28;20062;-70
2022/09/19 04:48:21;;;;;;;14.82;5.80;;;;;;;15.49;100.00;100155.72;5072344;28;20044;-70
2022/09/19 04:50:52;;;;;;;9.80;5.30;;;;;;;13.36;100.00;100163.63;5081267;28;20100;-71
2022/09/19 04:53:27;;;;;;;10.82;5.88;;;;;;;11.36;100.00;100169.25;5090371;28;20076;-71
2022/09/19 04:55:54;;;;;;;9.85;6.32;;;;;;;11.42;100.00;100166.53;5091085;28;20024;-71
2022/09/19 04:58:20;;;;;;;12.45;6.10;;;;;;;11.41;100.00;100176.78;5089958;28;20101;-72
2022/09/19 05:00:53;;;;;;;15.95;7.50;;;;;;;11.44;100.00;100161.41;5091329;28;20566;-71
2022/09/19 05:03:20;;;;;;;12.65;7.60;;;;;;;11.31;100.00;100166.84;5091010;28;20028;-71
2022/09/19 05:05:50;;;;;;;18.27;8.10;;;;;;;11.72;100.00;100139.38;5090695;28;20486;-73
2022/09/19 05:08:25;;;;;;;14.95;6.22;;;;;;;11.63;100.00;100165.91;5089404;28;20032;-72
2022/09/19 05:10:54;;;;;;;9.65;5.82;;;;;;;10.97;100.00;100134.75;5090795;28;20466;-72
2022/09/19 05:13:21;;;;;;;9.27;5.60;;;;;;;11.80;100.00;100165.47;5090779;28;20073;-72
2022/09/19 05:15:46;;;;;;;12.73;6.35;;;;;;;11.90;100.00;100177.88;5089287;28;20031;-71
2022/09/19 05:18:19;;;;;;;11.05;7.38;;;;;;;11.94;100.00;100176.88;5090328;28;20032;-69
2022/09/19 05:20:44;;;;;;;18.63;10.27;;;;;;;11.92;100.00;100165.91;5090228;28;20024;-71
2022/09/19 05:23:10;;;;;;;13.82;9.05;;;;;;;12.53;100.00;100172.47;5090184;28;20115;-71
2022/09/19 05:25:38;;;;;;;17.67;9.75;;;;;;;12.38;100.00;100180.59;5089396;28;20024;-71
2022/09/19 05:28:06;;;;;;;14.25;8.93;;;;;;;12.50;100.00;100179.38;5090351;28;20494;-71
2022/09/19 05:30:33;;;;;;;9.32;6.40;;;;;;;12.32;100.00;100167.22;5090641;28;20060;-71
2022/09/19 05:32:59;;;;;;;9.52;6.43;;;;;;;12.03;100.00;100178.31;5090953;28;20343;-72
2022/09/19 05:35:26;;;;;;;10.60;6.10;;;;;;;12.90;100.00;100190.75;5090819;28;20115;-70
2022/09/19 05:37:52;;;;;;;11.73;5.32;;;;;;;12.80;100.00;100174.09;5089009;28;20122;-71
2022/09/19 05:40:18;;;;;;;13.68;6.22;;;;;;;11.86;100.00;100127.91;5090573;28;20429;-71
2022/09/19 05:42:50;;;;;;;11.82;5.50;;;;;;;12.83;100.00;100185.91;5090352;28;20046;-71
2022/09/19 05:45:16;;;;;;;;;;;;;;;12.96;100.00;100189.72;5090864;28;20486;-71
2022/09/19 05:47:41;;;;;;;10.27;5.28;;;;;;;13.43;100.00;100172.75;5089370;28;19947;-71
2022/09/19 05:50:08;;;;;;;13.93;4.95;;;;;;;13.49;100.00;100178.47;5089308;28;20039;-70
2022/09/19 05:55:20;;;;;;;10.32;3.83;;;;;;;13.49;100.00;100186.13;5090502;28;20421;-71
2022/09/19 05:57:53;;;;;;;8.40;3.88;;;;;;;13.47;100.00;100141.91;5090139;28;20032;-71
2022/09/19 06:00:25;;;;;;;11.27;3.95;;;;;;;13.71;100.00;100187.00;5089173;28;20032;-71
2022/09/19 06:03:00;;;;;;;;;;;;;;;14.03;100.00;100182.38;5090826;28;20028;-70
2022/09/19 06:05:27;;;;;;;12.70;4.32;;;;;;;14.18;100.00;100151.13;5093533;28;19948;-72
2022/09/19 06:07:56;;;;;;;10.05;4.10;;;;;;;14.76;100.00;100176.00;5093661;28;20059;-70
2022/09/19 06:10:23;;;;;;;8.48;3.88;;;;;;;14.89;100.00;100146.44;5092499;28;20111;-70
2022/09/19 06:12:49;;;;;;;9.20;4.65;;;;;;;14.99;100.00;100164.81;5093721;28;20031;-71
2022/09/19 06:15:14;;;;;;;7.82;3.97;;;;;;;14.14;100.00;100170.88;5092373;28;20543;-71
2022/09/19 06:17:40;;;;;;;6.75;3.83;;;;;;;15.06;100.00;100169.59;5093423;28;20478;-71
2022/09/19 06:20:06;;;;;;;9.68;3.90;;;;;;;14.78;100.00;100146.88;5094012;28;20052;-71
2022/09/19 06:22:31;;;;;;;9.75;3.63;;;;;;;15.58;100.00;100165.59;5093387;28;20474;-69
2022/09/19 06:24:57;;;;;;;7.38;3.95;;;;;;;14.74;100.00;100147.06;5092053;28;20111;-71
2022/09/19 06:27:23;;;;;;;10.70;4.07;;;;;;;14.90;100.00;100157.50;5092856;28;20482;-69
2022/09/19 06:29:49;;;;;;;8.35;4.90;;;;;;;16.24;100.00;100190.63;5093568;28;20032;-68
2022/09/19 06:32:14;;;;;;;8.73;3.85;;;;;;;15.72;100.00;100183.72;5093599;28;20462;-69
2022/09/19 06:34:40;;;;;;;8.15;3.33;;;;;;;16.19;100.00;100209.72;5093199;28;20032;-70
2022/09/19 06:37:05;;;;;;;7.75;2.90;;;;;;;14.54;100.00;100178.63;5093026;28;20052;-69
2022/09/19 06:39:30;;;;;;;7.50;3.03;;;;;;;16.21;100.00;100143.78;5093209;28;20044;-69
2022/09/19 06:41:56;;;;;;;8.17;3.00;;;;;;;16.64;100.00;100158.75;5092750;28;20039;-70
2022/09/19 06:44:23;;;;;;;9.30;3.20;;;;;;;17.04;100.00;100186.69;5093083;28;20563;-69
2022/09/19 06:46:49;;;;;;;5.40;2.72;;;;;;;16.57;100.00;100198.50;5093126;28;20044;-69
2022/09/19 06:49:14;;;;;;;6.00;2.58;;;;;;;15.99;100.00;100207.25;5093028;28;20043;-69
2022/09/19 06:51:39;;;;;;;5.40;2.40;;;;;;;16.65;100.00;100175.00;5093261;28;20036;-69
2022/09/19 06:54:07;;;;;;;6.60;2.78;;;;;;;17.46;100.00;100172.50;5093038;28;20173;-69
2022/09/19 06:56:32;;;;;;;5.35;2.42;;;;;;;17.40;100.00;100195.97;5093048;28;20501;-69
2022/09/19 06:58:58;;;;;;;5.63;3.00;;;;;;;17.40;100.00;100157.41;5092100;28;20025;-70
2022/09/19 07:01:23;;;;;;;6.85;2.80;;;;;;;18.28;100.00;100159.38;5093122;28;20024;-69
2022/09/19 07:03:51;;;;;;;4.45;2.50;;;;;;;16.83;100.00;100198.03;5091442;28;20040;-69
2022/09/19 07:06:16;;;;;;;5.18;2.22;;;;;;;17.25;100.00;100166.75;5093053;28;20028;-68
2022/09/19 07:08:42;;;;;;;4.95;2.53;;;;;;;18.30;100.00;100185.88;5091511;28;20024;-69
2022/09/19 07:11:07;;;;;;;2.92;2.42;;;;;;;18.27;100.00;100162.88;5092311;28;20028;-68
2022/09/19 07:13:32;;;;;;;5.40;2.63;;;;;;;18.72;100.00;100198.06;5092528;28;20105;-69
2022/09/19 07:16:02;;;;;;;5.70;2.40;;;;;;;18.70;100.00;100158.66;5091905;28;20039;-68
2022/09/19 07:18:28;;;;;;;5.10;1.83;;;;;;;18.02;100.00;100165.16;5092517;28;20102;-70
2022/09/19 07:20:53;;;;;;;4.10;2.00;;;;;;;19.18;97.14;100186.72;5092247;28;20435;-69
2022/09/19 07:23:19;;;;;;;5.43;2.20;;;;;;;19.55;97.50;100185.34;5092294;28;20024;-70
2022/09/19 07:25:45;;;;;;;6.15;2.13;;;;;;;19.22;89.42;100167.56;5090719;28;20032;-69
2022/09/19 07:28:13;;;;;;;3.45;1.70;;;;;;;19.49;86.77;100168.47;5092235;28;20089;-69
2022/09/19 07:30:40;;;;;;;2.72;1.30;;;;;;;19.32;82.29;100172.97;5092491;28;20068;-68
2022/09/19 07:33:10;;;;;;;9.65;1.90;;;;;;;19.25;91.70;100163.97;5090528;28;20039;-70
2022/09/19 07:35:36;;;;;;;5.18;1.70;;;;;;;18.30;95.35;100149.00;5092220;28;20032;-70
2022/09/19 07:38:04;;;;;;;2.50;1.60;;;;;;;19.11;96.85;100179.44;5091717;28;20051;-72
2022/09/19 07:40:29;;;;;;;6.45;1.83;;;;;;;20.09;89.81;100175.88;5092076;28;20489;-69
2022/09/19 07:43:02;;;;;;;3.78;1.70;;;;;;;20.04;87.61;100175.38;5090700;28;20035;-69
2022/09/19 07:45:29;;;;;;;4.72;1.60;;;;;;;19.76;95.85;100187.44;5090783;28;20421;-69
2022/09/19 07:47:55;;;;;;;2.28;1.50;;;;;;;20.68;90.67;100180.59;5092337;28;20034;-69
2022/09/19 07:50:20;;;;;;;2.85;1.23;;;;;;;19.79;87.23;100188.97;5091672;28;20547;-69
2022/09/19 07:52:46;;;;;;;2.50;1.40;;;;;;;19.18;97.43;100176.41;5090256;28;20032;-68
2022/09/19 07:55:15;;;;;;;2.47;1.50;;;;;;;20.30;84.84;100164.22;5091936;28;20107;-69
2022/09/19 07:57:51;;;;;;;2.63;1.10;;;;;;;20.87;64.90;100147.44;5091708;28;20494;-69
2022/09/19 08:00:17;;;;;;;3.15;1.15;;;;;;;20.95;60.31;100168.44;5091726;28;20031;-68
2022/09/19 08:02:42;;;;;;;1.90;1.10;;;;;;;20.50;68.39;100182.66;5091321;28;20036;-70
2022/09/19 08:05:09;;;;;;;2.67;1.10;;;;;;;20.70;62.50;100169.25;5090387;28;20105;-70
2022/09/19 08:07:34;;;;;;;2.78;1.50;;;;;;;21.48;60.02;100162.19;5091400;28;20028;-72
2022/09/19 08:10:02;;;;;;;3.75;1.13;;;;;;;19.96;55.39;100155.22;5091440;28;20460;-69
2022/09/19 08:12:28;;;;;;;3.35;1.02;;;;;;;20.90;56.35;100144.66;5090000;28;20055;-69
2022/09/19 08:14:55;;;;;;;3.58;2.03;;;;;;;21.82;54.92;100161.50;5091635;28;20035;-70
2022/09/19 08:17:21;;;;;;;2.58;1.75;;;;;;;21.56;48.81;100170.25;5091256;28;20435;-70
2022/09/19 08:19:47;;;;;;;2.83;0.90;;;;;;;20.92;50.88;100162.66;5091016;28;20083;-69
2022/09/19 08:22:13;;;;;;;1.58;0.90;;;;;;;21.39;55.46;100149.91;5090091;28;20097;-69
2022/09/19 08:24:38;;;;;;;2.05;0.85;;;;;;;20.63;54.41;100103.41;5090952;28;20488;-69
2022/09/19 08:27:04;;;;;;;2.92;1.17;;;;;;;21.89;53.25;100123.88;5090974;28;20378;-69
2022/09/19 08:29:31;;;;;;;2.42;1.23;;;;;;;21.80;52.63;100155.59;5091366;28;20032;-69
2022/09/19 08:31:58;;;;;;;4.13;1.10;;;;;;;21.72;51.61;100144.09;5091187;28;20482;-69
2022/09/19 08:34:24;;;;;;;4.13;0.80;;;;;;;21.78;49.71;100141.09;5089278;28;20119;-69
2022/09/19 08:36:49;;;;;;;3.75;1.10;;;;;;;22.20;48.29;100114.72;5091627;28;20110;-70
2022/09/19 08:39:15;;;;;;;3.58;0.70;;;;;;;21.81;47.96;100095.13;5089813;28;20101;-69
2022/09/19 08:42:13;;;;;;;5.32;1.08;;;;;;;22.29;51.42;100135.56;5090971;28;20410;-70
2022/09/19 08:44:45;;;;;;;1.60;0.90;;;;;;;22.21;50.03;100132.72;5074423;28;20046;-72
2022/09/19 08:47:18;;;;;;;1.30;0.73;;;;;;;22.79;47.07;100103.31;5089859;28;20032;-70
2022/09/19 08:49:56;;;;;;;1.80;0.82;;;;;;;22.47;46.60;100084.13;5091268;28;20032;-70
2022/09/19 08:52:34;;;;;;;1.77;1.00;;;;;;;20.81;45.00;100072.91;5091013;28;20055;-70
2022/09/19 08:55:02;;;;;;;2.55;1.00;;;;;;;22.25;45.43;100110.84;5090474;28;20040;-70
2022/09/19 08:57:35;;;;;;;3.78;0.88;;;;;;;22.36;45.44;100115.22;5090853;28;20145;-70
2022/09/19 09:00:05;;;;;;;2.38;0.77;;;;;;;21.94;41.03;100113.19;5089473;28;20143;-68
2022/09/19 09:02:55;;;;;;;2.05;0.70;;;;;;;23.30;40.63;100106.22;5091051;28;20028;-69
2022/09/19 09:05:45;;;;;;;5.05;1.10;;;;;;;23.14;45.62;100100.56;5090171;28;20124;-72
2022/09/19 09:08:41;;;;;;;2.70;1.00;;;;;;;23.02;40.10;100080.78;5099500;28;20029;-69
2022/09/19 09:11:37;;;;;;;1.15;0.60;;;;;;;22.97;38.66;100095.88;5086815;28;20350;-70
2022/09/19 09:14:21;;;;;;;2.50;0.50;;;;;;;22.91;39.78;100080.78;5077472;28;20035;-69
2022/09/19 09:16:58;;;;;;;1.40;0.63;;;;;;;21.58;39.63;100095.91;5087682;28;20098;-71
2022/09/19 09:19:36;;;;;;;4.22;0.90;;;;;;;22.80;41.34;100088.59;5091264;28;20144;-69
2022/09/19 09:22:11;;;;;;;2.25;0.50;;;;;;;22.04;39.85;100088.28;5090456;28;20466;-68
2022/09/19 09:24:43;;;;;;;0.77;0.50;;;;;;;23.09;38.39;100071.59;5088901;28;20065;-69
2022/09/19 09:27:16;;;;;;;1.98;0.60;;;;;;;22.08;39.51;100074.16;5090468;28;20034;-70
2022/09/19 09:29:46;;;;;;;0.80;0.52;;;;;;;22.60;39.32;100034.84;5089384;28;20089;-71
2022/09/19 09:32:18;;;;;;;1.83;0.60;;;;;;;23.18;38.78;100057.88;5089229;28;20039;-69
2022/09/19 09:35:01;;;;;;;;;;;;;;;23.12;38.16;100063.56;5091062;28;20036;-72
2022/09/19 09:37:42;;;;;;;2.67;0.65;;;;;;;24.13;37.32;100021.56;5090617;28;20003;-72
2022/09/19 09:40:13;;;;;;;0.50;0.40;;;;;;;23.05;35.38;100052.84;5093671;28;20040;-73
2022/09/19 09:43:02;;;;;;;0.68;0.40;;;;;;;23.68;36.37;100052.13;5093774;28;20062;-72
2022/09/19 09:45:48;;;;;;;1.08;0.50;;;;;;;23.03;36.93;100051.31;5094762;28;20225;-72
2022/09/19 09:48:19;;;;;;;1.83;0.70;;;;;;;23.95;38.98;100051.63;5094061;28;20162;-73
2022/09/19 09:50:50;;;;;;;5.00;0.50;;;;;;;23.96;36.70;100054.13;5095423;28;20398;-73
2022/09/19 09:53:34;;;;;;;2.53;0.57;;;;;;;24.07;36.95;100046.28;5086161;28;20024;-70
2022/09/19 09:56:18;;;;;;;3.63;0.60;;;;;;;24.13;36.22;100039.75;5093070;28;20040;-71
2022/09/19 09:59:10;;;;;;;2.50;0.80;;;;;;;23.78;35.13;100041.81;5092141;28;20035;-71
2022/09/19 10:04:38;;;;;;;1.05;0.47;;;;;;;24.55;34.63;100006.72;5093850;28;20035;-72
2022/09/19 10:07:20;;;;;;;1.08;0.50;;;;;;;23.50;36.45;100039.78;5092634;28;20028;-72
2022/09/19 10:10:13;;;;;;;2.33;0.50;;;;;;;24.08;35.74;100034.97;5093579;28;20024;-70
2022/09/19 10:13:25;;;;;;;4.32;0.45;;;;;;;24.81;34.64;100028.78;5093318;28;20032;-72
2022/09/19 10:15:54;;;;;;;0.47;0.30;;;;;;;23.71;33.57;100028.47;5014350;28;20037;-70
2022/09/19 10:18:25;;;;;;;1.17;0.40;;;;;;;24.10;34.61;100024.44;5030297;28;20482;-72
2022/09/19 10:20:52;;;;;;;5.00;0.40;;;;;;;23.95;34.56;100023.88;5055393;28;20403;-71
2022/09/19 10:23:29;;;;;;;0.63;0.30;;;;;;;25.29;35.29;100023.69;5072473;28;20123;-71
2022/09/19 10:25:59;;;;;;;3.65;0.50;;;;;;;24.84;33.17;100018.09;5072652;28;20410;-72
2022/09/19 10:28:51;;;;;;;1.42;0.50;;;;;;;23.32;34.21;100018.72;5073513;28;20485;-71
2022/09/19 10:31:39;;;;;;;1.55;0.90;;;;;;;23.69;32.88;100011.41;5073063;28;20035;-71
2022/09/19 10:34:25;;;;;;;0.50;0.30;;;;;;;24.51;32.76;99969.78;5073397;28;20040;-71
2022/09/19 10:36:51;;;;;;;1.33;0.40;;;;;;;23.41;33.80;99983.44;5071808;28;20119;-71
2022/09/19 10:39:21;;;;;;;0.73;0.43;;;;;;;23.50;33.88;100003.44;5071083;28;20182;-71
2022/09/19 10:41:49;;;;;;;0.57;0.35;;;;;;;25.18;34.14;99969.97;5071135;28;20102;-70
2022/09/19 10:44:27;;;;;;;1.60;0.60;;;;;;;25.77;34.69;100001.09;5071765;28;20491;-71
2022/09/19 10:46:55;;;;;;;0.82;0.47;;;;;;;24.59;34.77;99974.31;5073046;28;20029;-71
2022/09/19 10:49:26;;;;;;;0.93;0.45;;;;;;;24.30;33.12;99973.38;5073005;28;20035;-72
2022/09/19 10:51:52;;;;;;;3.03;0.40;;;;;;;23.83;34.58;99952.16;5072212;28;20471;-70
2022/09/19 10:54:40;;;;;;;2.28;0.57;;;;;;;25.22;33.85;99992.16;5071720;28;20029;-72
2022/09/19 10:57:40;;;;;;;2.55;0.43;;;;;;;25.92;34.88;99997.09;5072741;28;20394;-72
2022/09/19 11:00:17;;;;;;;0.63;0.45;;;;;;;24.50;33.49;99991.50;5071753;28;20071;-72
2022/09/19 11:02:43;;;;;;;0.73;0.50;;;;;;;24.05;33.21;99965.06;5073109;28;20107;-72
2022/09/19 11:05:24;;;;;;;1.55;0.57;;;;;;;24.29;34.17;99956.97;5071645;28;20182;-72
2022/09/19 11:07:55;;;;;;;0.73;0.40;;;;;;;24.77;34.21;99951.94;5071587;28;20070;-72
2022/09/19 11:10:37;;;;;;;1.38;0.47;;;;;;;24.82;32.84;99947.16;5071179;28;20491;-72
2022/09/19 11:13:22;;;;;;;1.45;0.60;;;;;;;25.22;32.93;99949.66;5072601;28;20025;-72
2022/09/19 11:15:51;;;;;;;1.27;0.75;;;;;;;25.32;34.16;99974.75;5071576;28;20108;-72
2022/09/19 11:18:49;;;;;;;1.20;0.40;;;;;;;25.65;33.26;99961.34;5076811;28;20413;-74
2022/09/19 11:21:30;;;;;;;2.33;0.47;;;;;;;25.24;32.09;99959.00;5066614;28;20051;-72
2022/09/19 11:24:26;;;;;;;0.40;0.35;;;;;;;25.87;32.48;99959.41;5092809;28;20032;-72
2022/09/19 11:27:11;;;;;;;5.30;0.80;;;;;;;24.71;34.18;99966.28;5092723;28;20028;-71
2022/09/19 11:29:46;;;;;;;4.35;0.63;;;;;;;25.08;34.04;99961.31;5092010;28;20521;-71
2022/09/19 11:32:18;;;;;;;1.38;0.60;;;;;;;25.40;34.05;99959.31;5092618;28;20024;-72
2022/09/19 11:35:15;;;;;;;1.17;0.60;;;;;;;24.57;34.24;99952.81;5091447;28;20040;-72
2022/09/19 11:37:44;;;;;;;1.98;0.50;;;;;;;25.28;33.48;99949.97;5084058;28;20044;-72
2022/09/19 11:40:19;;;;;;;1.77;0.40;;;;;;;25.33;33.63;99918.31;5091184;28;20039;-72
2022/09/19 11:43:27;;;;;;;0.93;0.43;;;;;;;24.57;33.24;99912.03;5091136;28;20027;-72
2022/09/19 11:46:14;;;;;;;7.10;0.70;;;;;;;25.51;33.16;99930.50;5090479;28;20029;-71
2022/09/19 11:49:36;;;;;;;2.20;0.80;;;;;;;25.15;33.15;99926.00;5051644;28;20040;-71
2022/09/19 11:52:25;;;;;;;52.80;7.22;;;;;;;24.95;34.42;99900.91;5030308;28;20037;-72
2022/09/19 11:55:00;;;;;;;3.63;1.02;;;;;;;24.52;35.19;99916.00;5030313;28;20030;-73